sensor_id;sensor_type;location;lat;lon;timestamp;P1;durP1;ratioP1;P2;durP2;ratioP2
34643;SDS011;26931;43.498;-1.506;2022-11-15T00:00:10;4.55;;;2.50;;
34643;SDS011;26931;43.498;-1.506;2022-11-15T00:02:36;5.90;;;3.20;;
34643;SDS011;26931;43.498;-1.506;2022-11-15T00:05:02;4.50;;;2.70;;
34643;SDS011;26931;43.498;-1.506;2022-11-15T00:07:28;2.95;;;2.63;;
34643;SDS011;26931;43.498;-1.506;2022-11-15T00:09:54;5.05;;;2.53;;
34643;SDS011;26931;43.498;-1.506;2022-11-15T00:12:20;3.90;;;2.60;;
34643;SDS011;26931;43.498;-1.506;2022-11-15T00:14:45;5.93;;;2.53;;
34643;SDS011;26931;43.498;-1.506;2022-11-15T00:17:11;6.53;;;2.88;;
34643;SDS011;26931;43.498;-1.506;2022-11-15T00:19:37;4.90;;;3.22;;
34643;SDS011;26931;43.498;-1.506;2022-11-15T00:22:03;4.18;;;2.40;;
34643;SDS011;26931;43.498;-1.506;2022-11-15T00:24:29;5.13;;;2.92;;
34643;SDS011;26931;43.498;-1.506;2022-11-15T00:26:55;4.85;;;2.50;;
34643;SDS011;26931;43.498;-1.506;2022-11-15T00:29:21;4.05;;;2.60;;
34643;SDS011;26931;43.498;-1.506;2022-11-15T00:31:46;4.20;;;2.45;;
34643;SDS011;26931;43.498;-1.506;2022-11-15T00:34:12;5.47;;;2.60;;
34643;SDS011;26931;43.498;-1.506;2022-11-15T00:36:38;3.20;;;2.20;;
34643;SDS011;26931;43.498;-1.506;2022-11-15T00:39:04;5.07;;;2.45;;
34643;SDS011;26931;43.498;-1.506;2022-11-15T00:41:30;3.97;;;2.70;;
34643;SDS011;26931;43.498;-1.506;2022-11-15T00:43:56;6.15;;;2.80;;
34643;SDS011;26931;43.498;-1.506;2022-11-15T00:46:22;2.55;;;2.35;;
34643;SDS011;26931;43.498;-1.506;2022-11-15T00:48:48;7.20;;;2.90;;
34643;SDS011;26931;43.498;-1.506;2022-11-15T00:51:13;4.10;;;2.80;;
34643;SDS011;26931;43.498;-1.506;2022-11-15T00:53:39;4.45;;;2.90;;
34643;SDS011;26931;43.498;-1.506;2022-11-15T00:56:05;5.95;;;3.10;;
34643;SDS011;26931;43.498;-1.506;2022-11-15T00:58:31;6.95;;;3.10;;
34643;SDS011;26931;43.498;-1.506;2022-11-15T01:00:56;4.65;;;2.97;;
34643;SDS011;26931;43.498;-1.506;2022-11-15T01:03:37;6.85;;;2.65;;
34643;SDS011;26931;43.498;-1.506;2022-11-15T01:06:04;3.88;;;2.63;;
34643;SDS011;26931;43.498;-1.506;2022-11-15T01:08:30;3.30;;;2.55;;
34643;SDS011;26931;43.498;-1.506;2022-11-15T01:11:00;5.28;;;3.00;;
34643;SDS011;26931;43.498;-1.506;2022-11-15T01:13:31;5.45;;;3.38;;
34643;SDS011;26931;43.498;-1.506;2022-11-15T01:15:59;5.80;;;3.47;;
34643;SDS011;26931;43.498;-1.506;2022-11-15T01:18:33;5.63;;;3.70;;
34643;SDS011;26931;43.498;-1.506;2022-11-15T01:20:59;6.03;;;3.72;;
34643;SDS011;26931;43.498;-1.506;2022-11-15T01:23:29;6.30;;;3.65;;
34643;SDS011;26931;43.498;-1.506;2022-11-15T01:25:58;7.68;;;3.78;;
34643;SDS011;26931;43.498;-1.506;2022-11-15T01:28:25;6.10;;;3.72;;
34643;SDS011;26931;43.498;-1.506;2022-11-15T01:30:56;5.40;;;3.90;;
34643;SDS011;26931;43.498;-1.506;2022-11-15T01:33:23;5.53;;;3.65;;
34643;SDS011;26931;43.498;-1.506;2022-11-15T01:35:49;6.78;;;3.65;;
34643;SDS011;26931;43.498;-1.506;2022-11-15T01:38:14;5.32;;;3.53;;
34643;SDS011;26931;43.498;-1.506;2022-11-15T01:40:40;8.95;;;3.78;;
34643;SDS011;26931;43.498;-1.506;2022-11-15T01:43:19;8.48;;;3.60;;
34643;SDS011;26931;43.498;-1.506;2022-11-15T01:45:49;4.90;;;3.33;;
34643;SDS011;26931;43.498;-1.506;2022-11-15T01:48:19;6.72;;;3.20;;
34643;SDS011;26931;43.498;-1.506;2022-11-15T01:50:46;5.82;;;3.50;;
34643;SDS011;26931;43.498;-1.506;2022-11-15T01:53:12;5.55;;;3.22;;
34643;SDS011;26931;43.498;-1.506;2022-11-15T01:55:39;6.53;;;3.17;;
34643;SDS011;26931;43.498;-1.506;2022-11-15T01:58:04;4.28;;;2.90;;
34643;SDS011;26931;43.498;-1.506;2022-11-15T02:00:32;6.20;;;3.10;;
34643;SDS011;26931;43.498;-1.506;2022-11-15T02:02:58;4.97;;;2.97;;
34643;SDS011;26931;43.498;-1.506;2022-11-15T02:05:23;5.18;;;3.25;;
34643;SDS011;26931;43.498;-1.506;2022-11-15T02:07:50;5.97;;;3.08;;
34643;SDS011;26931;43.498;-1.506;2022-11-15T02:10:20;4.95;;;3.22;;
34643;SDS011;26931;43.498;-1.506;2022-11-15T02:12:47;3.28;;;2.85;;
34643;SDS011;26931;43.498;-1.506;2022-11-15T02:15:14;5.28;;;2.95;;
34643;SDS011;26931;43.498;-1.506;2022-11-15T02:37:58;9.07;;;5.05;;
34643;SDS011;26931;43.498;-1.506;2022-11-15T02:42:58;10.13;;;4.50;;
34643;SDS011;26931;43.498;-1.506;2022-11-15T02:45:51;7.78;;;4.22;;
34643;SDS011;26931;43.498;-1.506;2022-11-15T02:50:50;6.68;;;4.40;;
34643;SDS011;26931;43.498;-1.506;2022-11-15T02:53:17;4.70;;;3.60;;
34643;SDS011;26931;43.498;-1.506;2022-11-15T02:55:49;5.28;;;3.25;;
34643;SDS011;26931;43.498;-1.506;2022-11-15T03:12:10;4.15;;;3.10;;
34643;SDS011;26931;43.498;-1.506;2022-11-15T03:14:47;6.57;;;3.22;;
34643;SDS011;26931;43.498;-1.506;2022-11-15T03:17:26;4.07;;;3.00;;
34643;SDS011;26931;43.498;-1.506;2022-11-15T03:19:58;5.05;;;2.92;;
34643;SDS011;26931;43.498;-1.506;2022-11-15T03:22:26;8.15;;;2.83;;
34643;SDS011;26931;43.498;-1.506;2022-11-15T03:24:56;4.22;;;2.67;;
34643;SDS011;26931;43.498;-1.506;2022-11-15T03:27:26;3.88;;;2.78;;
34643;SDS011;26931;43.498;-1.506;2022-11-15T03:29:58;3.45;;;2.90;;
34643;SDS011;26931;43.498;-1.506;2022-11-15T03:32:28;5.15;;;2.78;;
34643;SDS011;26931;43.498;-1.506;2022-11-15T03:35:04;4.47;;;2.58;;
34643;SDS011;26931;43.498;-1.506;2022-11-15T03:37:57;4.22;;;3.17;;
34643;SDS011;26931;43.498;-1.506;2022-11-15T03:40:27;3.20;;;2.83;;
34643;SDS011;26931;43.498;-1.506;2022-11-15T03:49:13;3.95;;;2.70;;
34643;SDS011;26931;43.498;-1.506;2022-11-15T03:51:42;6.53;;;2.70;;
34643;SDS011;26931;43.498;-1.506;2022-11-15T03:54:07;5.50;;;3.15;;
34643;SDS011;26931;43.498;-1.506;2022-11-15T03:56:33;5.70;;;3.55;;
34643;SDS011;26931;43.498;-1.506;2022-11-15T03:58:59;5.88;;;2.85;;
34643;SDS011;26931;43.498;-1.506;2022-11-15T04:01:25;5.10;;;2.72;;
34643;SDS011;26931;43.498;-1.506;2022-11-15T04:03:51;4.28;;;2.65;;
34643;SDS011;26931;43.498;-1.506;2022-11-15T04:06:17;3.58;;;2.42;;
34643;SDS011;26931;43.498;-1.506;2022-11-15T04:08:43;2.58;;;2.22;;
34643;SDS011;26931;43.498;-1.506;2022-11-15T04:11:08;3.55;;;2.10;;
34643;SDS011;26931;43.498;-1.506;2022-11-15T04:13:34;3.40;;;2.35;;
34643;SDS011;26931;43.498;-1.506;2022-11-15T04:16:01;2.90;;;2.10;;
34643;SDS011;26931;43.498;-1.506;2022-11-15T04:18:27;2.70;;;2.00;;
34643;SDS011;26931;43.498;-1.506;2022-11-15T04:20:52;5.07;;;2.20;;
34643;SDS011;26931;43.498;-1.506;2022-11-15T04:23:37;3.50;;;2.20;;
34643;SDS011;26931;43.498;-1.506;2022-11-15T04:28:47;2.70;;;2.28;;
34643;SDS011;26931;43.498;-1.506;2022-11-15T04:33:57;3.67;;;2.30;;
34643;SDS011;26931;43.498;-1.506;2022-11-15T04:36:24;2.80;;;2.28;;
34643;SDS011;26931;43.498;-1.506;2022-11-15T04:39:08;3.00;;;2.20;;
34643;SDS011;26931;43.498;-1.506;2022-11-15T04:41:34;2.17;;;1.90;;
34643;SDS011;26931;43.498;-1.506;2022-11-15T04:44:00;4.53;;;2.35;;
34643;SDS011;26931;43.498;-1.506;2022-11-15T04:46:26;5.82;;;2.75;;
34643;SDS011;26931;43.498;-1.506;2022-11-15T04:48:52;3.22;;;2.10;;
34643;SDS011;26931;43.498;-1.506;2022-11-15T04:51:18;5.10;;;2.38;;
34643;SDS011;26931;43.498;-1.506;2022-11-15T04:53:44;5.32;;;2.08;;
34643;SDS011;26931;43.498;-1.506;2022-11-15T04:56:10;2.10;;;1.90;;
34643;SDS011;26931;43.498;-1.506;2022-11-15T04:58:36;2.40;;;2.13;;
34643;SDS011;26931;43.498;-1.506;2022-11-15T05:01:12;3.95;;;2.50;;
34643;SDS011;26931;43.498;-1.506;2022-11-15T05:03:42;1.73;;;1.63;;
34643;SDS011;26931;43.498;-1.506;2022-11-15T05:06:28;3.30;;;1.90;;
34643;SDS011;26931;43.498;-1.506;2022-11-15T05:08:54;3.83;;;2.40;;
34643;SDS011;26931;43.498;-1.506;2022-11-15T05:11:21;3.15;;;2.00;;
34643;SDS011;26931;43.498;-1.506;2022-11-15T05:13:47;2.30;;;2.10;;
34643;SDS011;26931;43.498;-1.506;2022-11-15T05:16:13;3.67;;;2.00;;
34643;SDS011;26931;43.498;-1.506;2022-11-15T05:18:39;4.85;;;2.47;;
34643;SDS011;26931;43.498;-1.506;2022-11-15T05:21:10;2.70;;;2.35;;
34643;SDS011;26931;43.498;-1.506;2022-11-15T05:23:37;4.57;;;2.15;;
34643;SDS011;26931;43.498;-1.506;2022-11-15T05:26:03;2.72;;;2.40;;
34643;SDS011;26931;43.498;-1.506;2022-11-15T05:28:30;2.33;;;1.90;;
34643;SDS011;26931;43.498;-1.506;2022-11-15T05:31:03;4.00;;;2.03;;
34643;SDS011;26931;43.498;-1.506;2022-11-15T05:33:31;3.47;;;1.85;;
34643;SDS011;26931;43.498;-1.506;2022-11-15T05:36:00;2.28;;;2.00;;
34643;SDS011;26931;43.498;-1.506;2022-11-15T05:38:38;3.00;;;1.88;;
34643;SDS011;26931;43.498;-1.506;2022-11-15T05:41:04;3.15;;;1.80;;
34643;SDS011;26931;43.498;-1.506;2022-11-15T05:43:31;1.95;;;1.83;;
34643;SDS011;26931;43.498;-1.506;2022-11-15T05:45:59;2.03;;;1.45;;
34643;SDS011;26931;43.498;-1.506;2022-11-15T05:48:26;1.40;;;1.30;;
34643;SDS011;26931;43.498;-1.506;2022-11-15T05:50:52;1.95;;;1.58;;
34643;SDS011;26931;43.498;-1.506;2022-11-15T05:53:19;2.97;;;2.00;;
34643;SDS011;26931;43.498;-1.506;2022-11-15T05:55:46;2.58;;;1.90;;
34643;SDS011;26931;43.498;-1.506;2022-11-15T05:58:13;3.45;;;1.98;;
34643;SDS011;26931;43.498;-1.506;2022-11-15T06:00:38;2.05;;;1.60;;
34643;SDS011;26931;43.498;-1.506;2022-11-15T06:03:04;1.92;;;1.70;;
34643;SDS011;26931;43.498;-1.506;2022-11-15T06:05:30;2.67;;;2.05;;
34643;SDS011;26931;43.498;-1.506;2022-11-15T06:07:59;1.95;;;1.77;;
34643;SDS011;26931;43.498;-1.506;2022-11-15T06:10:25;5.35;;;2.38;;
34643;SDS011;26931;43.498;-1.506;2022-11-15T06:13:01;2.65;;;2.10;;
34643;SDS011;26931;43.498;-1.506;2022-11-15T06:15:27;2.90;;;1.75;;
34643;SDS011;26931;43.498;-1.506;2022-11-15T06:17:56;5.30;;;1.92;;
34643;SDS011;26931;43.498;-1.506;2022-11-15T06:20:26;2.08;;;1.80;;
34643;SDS011;26931;43.498;-1.506;2022-11-15T06:22:57;2.20;;;1.70;;
34643;SDS011;26931;43.498;-1.506;2022-11-15T06:25:24;3.47;;;1.75;;
34643;SDS011;26931;43.498;-1.506;2022-11-15T06:27:56;1.77;;;1.67;;
34643;SDS011;26931;43.498;-1.506;2022-11-15T06:30:23;2.20;;;1.70;;
34643;SDS011;26931;43.498;-1.506;2022-11-15T06:32:50;1.77;;;1.67;;
34643;SDS011;26931;43.498;-1.506;2022-11-15T06:35:16;1.58;;;1.38;;
34643;SDS011;26931;43.498;-1.506;2022-11-15T06:37:42;2.58;;;1.50;;
34643;SDS011;26931;43.498;-1.506;2022-11-15T06:40:08;3.38;;;1.73;;
34643;SDS011;26931;43.498;-1.506;2022-11-15T06:42:35;5.38;;;2.08;;
34643;SDS011;26931;43.498;-1.506;2022-11-15T06:45:01;3.75;;;2.22;;
34643;SDS011;26931;43.498;-1.506;2022-11-15T06:47:26;3.05;;;1.65;;
34643;SDS011;26931;43.498;-1.506;2022-11-15T06:49:52;3.15;;;1.67;;
34643;SDS011;26931;43.498;-1.506;2022-11-15T06:52:18;1.88;;;1.30;;
34643;SDS011;26931;43.498;-1.506;2022-11-15T06:54:44;1.90;;;1.60;;
34643;SDS011;26931;43.498;-1.506;2022-11-15T06:57:10;2.22;;;1.58;;
34643;SDS011;26931;43.498;-1.506;2022-11-15T06:59:36;5.80;;;1.73;;
34643;SDS011;26931;43.498;-1.506;2022-11-15T07:02:02;2.60;;;1.75;;
34643;SDS011;26931;43.498;-1.506;2022-11-15T07:04:28;1.65;;;1.50;;
34643;SDS011;26931;43.498;-1.506;2022-11-15T07:06:54;2.35;;;1.65;;
34643;SDS011;26931;43.498;-1.506;2022-11-15T07:09:20;1.92;;;1.58;;
34643;SDS011;26931;43.498;-1.506;2022-11-15T07:11:46;3.40;;;1.48;;
34643;SDS011;26931;43.498;-1.506;2022-11-15T07:14:12;1.60;;;1.45;;
34643;SDS011;26931;43.498;-1.506;2022-11-15T07:16:38;2.58;;;1.67;;
34643;SDS011;26931;43.498;-1.506;2022-11-15T07:19:04;1.45;;;1.35;;
34643;SDS011;26931;43.498;-1.506;2022-11-15T07:21:30;2.75;;;1.55;;
34643;SDS011;26931;43.498;-1.506;2022-11-15T07:23:56;2.80;;;1.70;;
34643;SDS011;26931;43.498;-1.506;2022-11-15T07:26:22;1.65;;;1.52;;
34643;SDS011;26931;43.498;-1.506;2022-11-15T07:28:47;2.22;;;1.60;;
34643;SDS011;26931;43.498;-1.506;2022-11-15T07:31:13;5.65;;;1.63;;
34643;SDS011;26931;43.498;-1.506;2022-11-15T07:33:39;4.38;;;1.60;;
34643;SDS011;26931;43.498;-1.506;2022-11-15T07:36:06;2.25;;;1.30;;
34643;SDS011;26931;43.498;-1.506;2022-11-15T07:38:33;2.13;;;1.60;;
34643;SDS011;26931;43.498;-1.506;2022-11-15T07:41:01;1.85;;;1.48;;
34643;SDS011;26931;43.498;-1.506;2022-11-15T07:43:29;1.52;;;1.33;;
34643;SDS011;26931;43.498;-1.506;2022-11-15T07:45:57;2.25;;;1.58;;
34643;SDS011;26931;43.498;-1.506;2022-11-15T07:48:24;2.20;;;1.48;;
34643;SDS011;26931;43.498;-1.506;2022-11-15T07:50:50;4.72;;;1.33;;
34643;SDS011;26931;43.498;-1.506;2022-11-15T07:53:16;3.75;;;1.40;;
34643;SDS011;26931;43.498;-1.506;2022-11-15T07:55:42;3.42;;;1.45;;
34643;SDS011;26931;43.498;-1.506;2022-11-15T07:58:09;1.33;;;1.20;;
34643;SDS011;26931;43.498;-1.506;2022-11-15T08:00:36;1.80;;;1.45;;
34643;SDS011;26931;43.498;-1.506;2022-11-15T08:05:30;2.03;;;1.50;;
34643;SDS011;26931;43.498;-1.506;2022-11-15T08:07:56;2.35;;;1.30;;
34643;SDS011;26931;43.498;-1.506;2022-11-15T08:10:23;3.70;;;1.73;;
34643;SDS011;26931;43.498;-1.506;2022-11-15T08:12:56;3.20;;;1.58;;
34643;SDS011;26931;43.498;-1.506;2022-11-15T08:15:26;2.65;;;1.30;;
34643;SDS011;26931;43.498;-1.506;2022-11-15T08:17:56;2.00;;;1.42;;
34643;SDS011;26931;43.498;-1.506;2022-11-15T08:20:23;1.38;;;1.08;;
34643;SDS011;26931;43.498;-1.506;2022-11-15T08:22:51;1.10;;;1.10;;
34643;SDS011;26931;43.498;-1.506;2022-11-15T08:25:17;1.63;;;1.30;;
34643;SDS011;26931;43.498;-1.506;2022-11-15T08:27:44;1.75;;;1.40;;
34643;SDS011;26931;43.498;-1.506;2022-11-15T08:30:10;2.13;;;1.23;;
34643;SDS011;26931;43.498;-1.506;2022-11-15T08:32:37;2.50;;;1.45;;
34643;SDS011;26931;43.498;-1.506;2022-11-15T08:35:03;1.58;;;1.48;;
34643;SDS011;26931;43.498;-1.506;2022-11-15T08:37:29;1.80;;;1.30;;
34643;SDS011;26931;43.498;-1.506;2022-11-15T08:39:55;3.25;;;1.48;;
34643;SDS011;26931;43.498;-1.506;2022-11-15T08:42:21;1.25;;;1.13;;
34643;SDS011;26931;43.498;-1.506;2022-11-15T08:44:47;2.05;;;1.50;;
34643;SDS011;26931;43.498;-1.506;2022-11-15T08:47:13;2.20;;;1.52;;
34643;SDS011;26931;43.498;-1.506;2022-11-15T08:49:39;5.72;;;1.27;;
34643;SDS011;26931;43.498;-1.506;2022-11-15T08:52:05;3.30;;;1.33;;
34643;SDS011;26931;43.498;-1.506;2022-11-15T08:54:31;3.05;;;1.63;;
34643;SDS011;26931;43.498;-1.506;2022-11-15T08:56:57;1.77;;;1.48;;
34643;SDS011;26931;43.498;-1.506;2022-11-15T08:59:23;2.97;;;1.40;;
34643;SDS011;26931;43.498;-1.506;2022-11-15T09:01:49;1.52;;;1.40;;
34643;SDS011;26931;43.498;-1.506;2022-11-15T09:04:16;1.38;;;1.27;;
34643;SDS011;26931;43.498;-1.506;2022-11-15T09:06:42;1.52;;;1.27;;
34643;SDS011;26931;43.498;-1.506;2022-11-15T09:09:08;1.42;;;1.20;;
34643;SDS011;26931;43.498;-1.506;2022-11-15T09:11:33;1.27;;;1.17;;
34643;SDS011;26931;43.498;-1.506;2022-11-15T09:13:59;1.85;;;1.40;;
34643;SDS011;26931;43.498;-1.506;2022-11-15T09:16:26;1.20;;;1.10;;
34643;SDS011;26931;43.498;-1.506;2022-11-15T09:18:52;1.45;;;1.27;;
34643;SDS011;26931;43.498;-1.506;2022-11-15T09:21:19;6.35;;;1.67;;
34643;SDS011;26931;43.498;-1.506;2022-11-15T09:23:45;2.28;;;1.25;;
34643;SDS011;26931;43.498;-1.506;2022-11-15T09:26:12;1.38;;;1.13;;
34643;SDS011;26931;43.498;-1.506;2022-11-15T09:28:38;2.25;;;1.25;;
34643;SDS011;26931;43.498;-1.506;2022-11-15T09:31:07;1.77;;;1.20;;
34643;SDS011;26931;43.498;-1.506;2022-11-15T09:33:33;4.78;;;2.72;;
34643;SDS011;26931;43.498;-1.506;2022-11-15T09:36:00;2.92;;;1.45;;
34643;SDS011;26931;43.498;-1.506;2022-11-15T09:38:28;1.63;;;1.52;;
34643;SDS011;26931;43.498;-1.506;2022-11-15T09:40:58;1.83;;;1.70;;
34643;SDS011;26931;43.498;-1.506;2022-11-15T09:44:00;1.40;;;1.30;;
34643;SDS011;26931;43.498;-1.506;2022-11-15T09:46:52;3.30;;;1.52;;
34643;SDS011;26931;43.498;-1.506;2022-11-15T09:49:34;4.47;;;1.48;;
34643;SDS011;26931;43.498;-1.506;2022-11-15T09:52:00;2.85;;;1.48;;
34643;SDS011;26931;43.498;-1.506;2022-11-15T09:54:33;3.58;;;1.92;;
34643;SDS011;26931;43.498;-1.506;2022-11-15T10:05:59;2.85;;;1.88;;
34643;SDS011;26931;43.498;-1.506;2022-11-15T10:08:37;1.50;;;1.40;;
34643;SDS011;26931;43.498;-1.506;2022-11-15T10:11:20;1.75;;;1.35;;
34643;SDS011;26931;43.498;-1.506;2022-11-15T10:13:50;3.00;;;1.35;;
34643;SDS011;26931;43.498;-1.506;2022-11-15T10:16:25;2.47;;;1.23;;
34643;SDS011;26931;43.498;-1.506;2022-11-15T10:19:06;2.22;;;1.30;;
34643;SDS011;26931;43.498;-1.506;2022-11-15T10:24:28;2.13;;;1.30;;
34643;SDS011;26931;43.498;-1.506;2022-11-15T10:27:06;2.97;;;1.40;;
34643;SDS011;26931;43.498;-1.506;2022-11-15T10:29:48;4.57;;;1.55;;
34643;SDS011;26931;43.498;-1.506;2022-11-15T10:32:16;2.03;;;1.50;;
34643;SDS011;26931;43.498;-1.506;2022-11-15T10:34:46;1.10;;;1.10;;
34643;SDS011;26931;43.498;-1.506;2022-11-15T10:37:13;5.68;;;1.70;;
34643;SDS011;26931;43.498;-1.506;2022-11-15T10:39:39;1.35;;;1.25;;
34643;SDS011;26931;43.498;-1.506;2022-11-15T10:42:25;3.58;;;1.65;;
34643;SDS011;26931;43.498;-1.506;2022-11-15T10:44:52;2.60;;;1.83;;
34643;SDS011;26931;43.498;-1.506;2022-11-15T10:47:29;2.00;;;1.70;;
34643;SDS011;26931;43.498;-1.506;2022-11-15T10:50:25;1.90;;;1.40;;
34643;SDS011;26931;43.498;-1.506;2022-11-15T10:52:56;1.95;;;1.50;;
34643;SDS011;26931;43.498;-1.506;2022-11-15T10:55:24;2.38;;;1.50;;
34643;SDS011;26931;43.498;-1.506;2022-11-15T10:57:56;3.08;;;1.38;;
34643;SDS011;26931;43.498;-1.506;2022-11-15T11:00:30;2.05;;;1.40;;
34643;SDS011;26931;43.498;-1.506;2022-11-15T11:03:28;2.15;;;1.30;;
34643;SDS011;26931;43.498;-1.506;2022-11-15T11:06:06;2.70;;;1.48;;
34643;SDS011;26931;43.498;-1.506;2022-11-15T11:08:34;3.15;;;1.38;;
34643;SDS011;26931;43.498;-1.506;2022-11-15T11:11:02;1.63;;;1.45;;
34643;SDS011;26931;43.498;-1.506;2022-11-15T11:13:29;1.33;;;1.23;;
34643;SDS011;26931;43.498;-1.506;2022-11-15T11:16:42;1.85;;;1.30;;
34643;SDS011;26931;43.498;-1.506;2022-11-15T11:21:46;2.83;;;1.73;;
34643;SDS011;26931;43.498;-1.506;2022-11-15T11:34:57;1.58;;;1.48;;
34643;SDS011;26931;43.498;-1.506;2022-11-15T11:37:52;1.75;;;1.35;;
34643;SDS011;26931;43.498;-1.506;2022-11-15T11:48:42;3.63;;;1.50;;
34643;SDS011;26931;43.498;-1.506;2022-11-15T11:51:24;1.38;;;1.27;;
34643;SDS011;26931;43.498;-1.506;2022-11-15T11:54:06;3.00;;;1.15;;
34643;SDS011;26931;43.498;-1.506;2022-11-15T11:56:36;1.30;;;1.17;;
34643;SDS011;26931;43.498;-1.506;2022-11-15T11:59:07;3.58;;;1.33;;
34643;SDS011;26931;43.498;-1.506;2022-11-15T12:01:42;2.70;;;1.10;;
34643;SDS011;26931;43.498;-1.506;2022-11-15T12:04:12;3.83;;;1.30;;
34643;SDS011;26931;43.498;-1.506;2022-11-15T12:09:51;3.00;;;1.55;;
34643;SDS011;26931;43.498;-1.506;2022-11-15T12:12:29;3.95;;;1.45;;
34643;SDS011;26931;43.498;-1.506;2022-11-15T12:15:03;3.55;;;1.83;;
34643;SDS011;26931;43.498;-1.506;2022-11-15T12:17:38;2.22;;;1.55;;
34643;SDS011;26931;43.498;-1.506;2022-11-15T12:20:25;5.43;;;1.40;;
34643;SDS011;26931;43.498;-1.506;2022-11-15T12:22:58;2.15;;;1.60;;
34643;SDS011;26931;43.498;-1.506;2022-11-15T12:28:31;2.50;;;1.50;;
34643;SDS011;26931;43.498;-1.506;2022-11-15T12:33:39;2.60;;;1.67;;
34643;SDS011;26931;43.498;-1.506;2022-11-15T12:41:19;2.78;;;1.48;;
34643;SDS011;26931;43.498;-1.506;2022-11-15T12:43:47;1.45;;;1.30;;
34643;SDS011;26931;43.498;-1.506;2022-11-15T12:48:59;3.42;;;1.40;;
34643;SDS011;26931;43.498;-1.506;2022-11-15T12:57:33;2.60;;;1.33;;
34643;SDS011;26931;43.498;-1.506;2022-11-15T13:02:33;4.50;;;1.77;;
34643;SDS011;26931;43.498;-1.506;2022-11-15T13:12:55;2.92;;;1.45;;
34643;SDS011;26931;43.498;-1.506;2022-11-15T13:15:40;1.48;;;1.38;;
34643;SDS011;26931;43.498;-1.506;2022-11-15T13:21:00;1.55;;;0.95;;
34643;SDS011;26931;43.498;-1.506;2022-11-15T13:23:51;2.00;;;1.10;;
34643;SDS011;26931;43.498;-1.506;2022-11-15T13:26:18;1.92;;;1.67;;
34643;SDS011;26931;43.498;-1.506;2022-11-15T13:28:46;2.25;;;1.10;;
34643;SDS011;26931;43.498;-1.506;2022-11-15T13:34:24;2.20;;;1.40;;
34643;SDS011;26931;43.498;-1.506;2022-11-15T13:36:58;1.70;;;1.60;;
34643;SDS011;26931;43.498;-1.506;2022-11-15T13:39:28;1.50;;;1.40;;
34643;SDS011;26931;43.498;-1.506;2022-11-15T13:41:57;1.88;;;1.58;;
34643;SDS011;26931;43.498;-1.506;2022-11-15T13:44:30;2.40;;;1.40;;
34643;SDS011;26931;43.498;-1.506;2022-11-15T13:47:03;2.67;;;1.52;;
34643;SDS011;26931;43.498;-1.506;2022-11-15T13:49:31;2.00;;;1.83;;
34643;SDS011;26931;43.498;-1.506;2022-11-15T13:51:58;2.50;;;1.80;;
34643;SDS011;26931;43.498;-1.506;2022-11-15T13:54:35;2.95;;;1.63;;
34643;SDS011;26931;43.498;-1.506;2022-11-15T13:57:24;3.35;;;2.20;;
34643;SDS011;26931;43.498;-1.506;2022-11-15T13:59:59;2.70;;;2.10;;
34643;SDS011;26931;43.498;-1.506;2022-11-15T14:02:32;4.40;;;2.22;;
34643;SDS011;26931;43.498;-1.506;2022-11-15T14:05:16;3.53;;;2.05;;
34643;SDS011;26931;43.498;-1.506;2022-11-15T14:10:33;5.22;;;2.35;;
34643;SDS011;26931;43.498;-1.506;2022-11-15T14:13:01;2.95;;;1.90;;
34643;SDS011;26931;43.498;-1.506;2022-11-15T14:15:33;2.78;;;1.60;;
34643;SDS011;26931;43.498;-1.506;2022-11-15T14:18:01;2.17;;;1.58;;
34643;SDS011;26931;43.498;-1.506;2022-11-15T14:20:31;1.65;;;1.55;;
34643;SDS011;26931;43.498;-1.506;2022-11-15T14:23:04;1.48;;;1.38;;
34643;SDS011;26931;43.498;-1.506;2022-11-15T14:25:53;1.60;;;1.50;;
34643;SDS011;26931;43.498;-1.506;2022-11-15T14:30:50;1.80;;;1.70;;
34643;SDS011;26931;43.498;-1.506;2022-11-15T14:35:45;2.10;;;1.70;;
34643;SDS011;26931;43.498;-1.506;2022-11-15T14:38:11;2.08;;;1.50;;
34643;SDS011;26931;43.498;-1.506;2022-11-15T14:40:38;2.70;;;1.60;;
34643;SDS011;26931;43.498;-1.506;2022-11-15T14:43:04;4.18;;;1.83;;
34643;SDS011;26931;43.498;-1.506;2022-11-15T14:45:29;2.67;;;1.67;;
34643;SDS011;26931;43.498;-1.506;2022-11-15T14:47:55;3.05;;;1.85;;
34643;SDS011;26931;43.498;-1.506;2022-11-15T14:50:21;3.20;;;1.92;;
34643;SDS011;26931;43.498;-1.506;2022-11-15T14:52:48;8.30;;;2.92;;
34643;SDS011;26931;43.498;-1.506;2022-11-15T14:55:21;12.30;;;2.97;;
34643;SDS011;26931;43.498;-1.506;2022-11-15T14:57:48;23.90;;;3.95;;
34643;SDS011;26931;43.498;-1.506;2022-11-15T15:00:14;22.48;;;5.20;;
34643;SDS011;26931;43.498;-1.506;2022-11-15T15:02:41;20.42;;;4.80;;
34643;SDS011;26931;43.498;-1.506;2022-11-15T15:08:02;19.13;;;4.38;;
34643;SDS011;26931;43.498;-1.506;2022-11-15T15:10:36;21.20;;;5.38;;
34643;SDS011;26931;43.498;-1.506;2022-11-15T15:13:04;19.88;;;5.53;;
34643;SDS011;26931;43.498;-1.506;2022-11-15T15:15:35;20.40;;;5.03;;
34643;SDS011;26931;43.498;-1.506;2022-11-15T15:18:02;20.92;;;4.32;;
34643;SDS011;26931;43.498;-1.506;2022-11-15T15:20:30;20.55;;;5.25;;
34643;SDS011;26931;43.498;-1.506;2022-11-15T15:22:57;22.38;;;5.95;;
34643;SDS011;26931;43.498;-1.506;2022-11-15T15:25:27;20.38;;;5.43;;
34643;SDS011;26931;43.498;-1.506;2022-11-15T15:27:55;19.98;;;4.88;;
34643;SDS011;26931;43.498;-1.506;2022-11-15T15:30:22;29.50;;;6.55;;
34643;SDS011;26931;43.498;-1.506;2022-11-15T15:32:49;17.45;;;4.35;;
34643;SDS011;26931;43.498;-1.506;2022-11-15T15:35:15;18.08;;;4.32;;
34643;SDS011;26931;43.498;-1.506;2022-11-15T15:37:43;16.40;;;4.57;;
34643;SDS011;26931;43.498;-1.506;2022-11-15T15:40:20;15.93;;;4.55;;
34643;SDS011;26931;43.498;-1.506;2022-11-15T15:42:47;23.40;;;4.50;;
34643;SDS011;26931;43.498;-1.506;2022-11-15T15:45:13;30.17;;;6.10;;
34643;SDS011;26931;43.498;-1.506;2022-11-15T15:47:40;34.45;;;6.88;;
34643;SDS011;26931;43.498;-1.506;2022-11-15T15:50:18;34.63;;;7.43;;
34643;SDS011;26931;43.498;-1.506;2022-11-15T15:52:48;45.95;;;8.00;;
34643;SDS011;26931;43.498;-1.506;2022-11-15T15:55:15;31.90;;;7.15;;
34643;SDS011;26931;43.498;-1.506;2022-11-15T15:57:41;33.00;;;7.38;;
34643;SDS011;26931;43.498;-1.506;2022-11-15T16:00:08;32.53;;;7.18;;
34643;SDS011;26931;43.498;-1.506;2022-11-15T16:02:34;45.28;;;9.27;;
34643;SDS011;26931;43.498;-1.506;2022-11-15T16:05:00;33.80;;;6.85;;
34643;SDS011;26931;43.498;-1.506;2022-11-15T16:07:26;26.95;;;4.78;;
34643;SDS011;26931;43.498;-1.506;2022-11-15T16:09:54;18.15;;;4.53;;
34643;SDS011;26931;43.498;-1.506;2022-11-15T16:12:35;23.52;;;5.00;;
34643;SDS011;26931;43.498;-1.506;2022-11-15T16:15:01;19.10;;;4.70;;
34643;SDS011;26931;43.498;-1.506;2022-11-15T16:17:29;19.13;;;4.50;;
34643;SDS011;26931;43.498;-1.506;2022-11-15T16:19:58;26.83;;;5.82;;
34643;SDS011;26931;43.498;-1.506;2022-11-15T16:22:24;24.60;;;5.65;;
34643;SDS011;26931;43.498;-1.506;2022-11-15T16:24:50;26.83;;;6.53;;
34643;SDS011;26931;43.498;-1.506;2022-11-15T16:27:19;20.73;;;4.78;;
34643;SDS011;26931;43.498;-1.506;2022-11-15T16:29:46;28.67;;;5.68;;
34643;SDS011;26931;43.498;-1.506;2022-11-15T16:32:12;24.88;;;5.10;;
34643;SDS011;26931;43.498;-1.506;2022-11-15T16:34:39;20.30;;;4.93;;
34643;SDS011;26931;43.498;-1.506;2022-11-15T16:37:05;26.60;;;4.95;;
34643;SDS011;26931;43.498;-1.506;2022-11-15T16:39:39;20.95;;;7.65;;
34643;SDS011;26931;43.498;-1.506;2022-11-15T16:42:05;16.85;;;5.22;;
34643;SDS011;26931;43.498;-1.506;2022-11-15T16:44:31;22.15;;;5.70;;
34643;SDS011;26931;43.498;-1.506;2022-11-15T16:47:01;20.05;;;5.90;;
34643;SDS011;26931;43.498;-1.506;2022-11-15T16:49:26;21.73;;;5.68;;
34643;SDS011;26931;43.498;-1.506;2022-11-15T16:51:52;23.20;;;7.00;;
34643;SDS011;26931;43.498;-1.506;2022-11-15T16:54:18;25.45;;;6.28;;
34643;SDS011;26931;43.498;-1.506;2022-11-15T16:56:44;19.08;;;5.50;;
34643;SDS011;26931;43.498;-1.506;2022-11-15T16:59:13;21.60;;;6.15;;
34643;SDS011;26931;43.498;-1.506;2022-11-15T17:01:41;21.17;;;5.18;;